Terminal Aerodrome Forecast
Issued by NWS

Home | Current Version | Previous Version | Text Only | Print | Product List | Glossary On
Versions: 1 2 3 4 5 6 7 8 9 10 11 12 13 14 15 16 17 18 19 20 21 22 23 24 25 26 27 28 29 30 31 32
000
FTUS44 KHGX 300054 AAA
TAFLBX
TAF AMD
KLBX 300054Z 3001/3024 08007KT P6SM SCT018 SCT100
      TEMPO 3001/3002 VRB15KT 5SM TSRA BKN018CB
     FM300500 05004KT P6SM FEW009 BKN140
     FM301300 03008KT P6SM VCSH SCT012 OVC040 PROB30 3013/3017 SHRA
      BKN012
     FM301700 07009KT P6SM VCSH SCT020 BKN050
     FM302300 07006KT P6SM BKN150=

USA.gov is the U.S. government's official web portal to all federal, state and local government web resources and services.